Latest Weather Observations for Barimunya

IDW60801

Issued at 7:33 am WST Friday 9 December 2016 (issued every 30 minutes, with the page automatically refreshed every 10 minutes)

About weather observations | Map of weather stations | Latest weather observations for WA | Other Formats
Station Details ID: 505053 Name: BARIMUNYA Lat: -22.67 Lon: 119.16 Height: 629.17 m
Data from the previous 72 hours. | See also: Recent months for locations in Western Australia
Date/Time
WST
Temp
°C
App
Temp
°C
Dew
Point
°C
Rel
Hum
%
Delta-T
°C
Wind Press
QNH
hPa
Press
MSL
hPa
Rain since
9am
mm
Dir  Spd
km/h
Gust
km/h
Spd
kts
Gust
kts
09/07:30am 24.9 26.1 19.1 70 3.8 SE 11 15 6 8 1015.1 1009.7 5.8
09/07:00am 24.2 27.6 19.3 74 3.2 CALM 0 0 0 0 1015.0 1009.6 5.8
09/06:30am 23.5 25.7 19.2 77 2.8 SE 6 7 3 4 1014.9 1009.5 5.8
09/06:00am 23.1 25.0 19.7 81 2.2 SE 9 11 5 6 1014.6 1009.1 5.8
09/05:30am 22.7 24.5 19.5 82 2.1 SE 9 15 5 8 1014.5 1009.0 5.8
09/05:00am 22.5 23.0 19.3 82 2.1 SSE 15 19 8 10 1014.0 1008.5 5.8
09/04:30am 22.7 22.9 20.2 86 1.7 SSE 19 22 10 12 1013.6 1008.2 5.8
09/04:00am 22.9 24.2 20.2 85 1.8 SE 13 15 7 8 1013.2 1007.7 5.8
09/03:30am 23.6 26.0 18.0 71 3.6 NW 2 7 1 4 1012.8 1007.3 5.8
09/03:00am 23.0 23.9 18.5 76 2.9 NNW 11 17 6 9 1012.8 1007.3 5.8
09/02:30am 23.0 23.5 19.2 79 2.5 N 15 20 8 11 1012.8 1007.3 5.8
09/02:00am 22.8 25.1 19.4 81 2.2 NE 6 9 3 5 1013.2 1007.7 5.8
09/01:30am 21.8 23.0 19.0 84 1.8 ENE 11 15 6 8 1013.5 1008.1 5.8
09/01:00am 21.8 21.4 18.8 83 1.9 NNE 19 22 10 12 1013.8 1008.4 5.2
09/12:30am 21.7 21.2 18.7 83 1.9 N 19 24 10 13 1014.4 1008.9 4.6
09/12:00am 22.1 23.5 18.7 81 2.2 N 9 15 5 8 1014.7 1009.2 3.6
 
Date/Time
WST
Temp
°C
App
Temp
°C
Dew
Point
°C
Rel
Hum
%
Delta-T
°C
Wind Press
QNH
hPa
Press
MSL
hPa
Rain since
9am
mm
Dir  Spd
km/h
Gust
km/h
Spd
kts
Gust
kts
08/11:30pm 22.4 23.9 19.8 85 1.7 E 11 15 6 8 1015.5 1010.1 3.4
08/11:00pm 22.5 22.8 18.7 79 2.5 SSE 15 17 8 9 1015.8 1010.3 2.8
08/10:30pm 23.2 23.4 18.5 75 3.0 SSE 15 22 8 12 1016.3 1010.8 1.4
08/10:00pm 22.3 22.2 18.7 80 2.3 SSE 17 20 9 11 1016.3 1010.8 1.4
08/09:30pm 22.5 23.5 20.2 87 1.5 SSE 15 19 8 10 1016.5 1011.1 1.0
08/09:00pm 22.5 22.6 20.0 86 1.6 S 19 26 10 14 1016.3 1010.8 0.6
08/08:30pm 25.4 24.5 18.3 65 4.6 SSW 20 30 11 16 1015.1 1009.7 0.2
08/08:00pm 28.3 25.6 16.6 49 7.5 ESE 26 39 14 21 1014.1 1008.6 0.0
08/07:48pm 28.9 26.0 16.1 46 8.1 E 26 39 14 21 1013.4 1008.0 0.0
08/07:30pm 29.0 28.5 16.9 48 7.8 SE 15 20 8 11 1013.1 1007.6 0.0
08/07:00pm 29.2 27.2 16.4 46 8.2 ESE 22 30 12 16 1012.7 1007.2 0.0
08/06:30pm 29.2 27.5 17.1 48 7.8 SE 22 28 12 15 1011.9 1006.5 0.0
08/06:00pm 28.8 26.5 17.7 51 7.2 SE 26 33 14 18 1011.7 1006.2 0.0
08/05:30pm 30.8 26.4 15.6 39 9.6 SSE 33 44 18 24 1011.2 1005.7 0.0
08/05:00pm 34.6 31.9 13.4 28 13.2 NNE 20 28 11 15 1010.3 1004.8 0.0
08/04:30pm 35.6 33.7 13.1 25 14.0 N 15 26 8 14 1009.9 1004.4 0.0
08/04:00pm 36.4 35.3 13.2 25 14.5 NNW 11 20 6 11 1009.8 1004.3 0.0
08/03:30pm 35.6 33.2 12.5 24 14.2 E 17 24 9 13 1009.9 1004.4 0.0
08/03:00pm 36.5 34.7 13.3 25 14.5 N 15 26 8 14 1010.2 1004.7 0.0
08/02:30pm 35.5 34.0 13.1 26 13.9 NNE 13 19 7 10 1010.6 1005.1 0.0
08/02:00pm 35.4 35.2 13.5 26 13.7 NW 7 17 4 9 1010.8 1005.3 0.0
08/01:30pm 34.2 32.7 14.1 29 12.6 NW 15 20 8 11 1011.1 1005.6 0.0
08/01:00pm 33.9 32.3 13.9 30 12.5 NW 15 30 8 16 1011.3 1005.8 0.0
08/12:30pm 33.9 32.9 13.4 29 12.7 NW 11 15 6 8 1011.6 1006.1 0.0
08/12:00pm 33.7 33.5 13.7 30 12.5 ENE 7 13 4 7 1012.0 1006.6 0.0
08/11:30am 34.9 34.4 13.7 28 13.3 SSE 9 15 5 8 1012.4 1006.9 0.0
08/11:00am 33.4 33.4 13.5 30 12.4 WNW 6 13 3 7 1012.8 1007.3 0.0
08/10:30am 33.3 33.2 13.9 31 12.1 ENE 7 13 4 7 1013.2 1007.7 0.0
08/10:00am 33.1 32.0 14.2 32 11.8 E 13 20 7 11 1013.4 1008.0 0.0
08/09:30am 32.5 32.7 14.6 34 11.3 SSE 7 17 4 9 1013.5 1008.1 0.0
08/09:00am 31.6 30.6 14.7 36 10.6 SW 13 20 7 11 1013.6 1008.2 0.0
08/08:30am 30.9 30.3 15.7 39 9.7 WSW 13 19 7 10 1013.7 1008.3 0.0
08/08:00am 29.3 29.0 16.5 46 8.2 WSW 13 17 7 9 1013.8 1008.4 0.0
08/07:30am 28.7 28.0 16.3 47 7.9 W 15 22 8 12 1013.8 1008.4 0.0
08/07:00am 27.6 27.0 16.6 51 7.0 W 15 19 8 10 1013.6 1008.2 0.0
08/06:30am 26.5 26.4 17.0 56 6.1 WNW 13 17 7 9 1013.5 1008.1 0.0
08/06:00am 25.5 26.6 17.2 60 5.3 NW 7 11 4 6 1013.4 1008.0 0.0
08/05:30am 23.8 26.2 17.1 66 4.2 CALM 0 0 0 0 1012.9 1007.4 0.0
08/05:00am 24.0 26.5 17.3 66 4.3 CALM 0 6 0 3 1012.5 1007.0 0.0
08/04:30am 24.2 26.0 17.4 65 4.3 WNW 4 7 2 4 1012.3 1006.8 0.0
08/04:00am 24.5 25.4 17.5 65 4.5 WNW 9 13 5 7 1011.9 1006.5 0.0
08/03:30am 24.8 25.7 17.5 64 4.7 WNW 9 11 5 6 1012.0 1006.6 0.0
08/03:00am 25.1 25.3 17.6 63 4.8 WNW 13 20 7 11 1012.0 1006.6 0.0
08/02:30am 25.5 25.0 17.7 62 5.0 WNW 17 24 9 13 1012.1 1006.7 0.0
08/02:00am 25.6 24.7 17.8 62 5.0 WNW 19 24 10 13 1012.1 1006.7 0.0
08/01:30am 26.0 24.8 17.6 60 5.4 WNW 20 26 11 14 1012.3 1006.8 0.0
08/01:00am 26.5 25.5 17.6 58 5.7 WNW 19 28 10 15 1012.6 1007.1 0.0
08/12:30am 26.6 25.8 17.9 59 5.6 NW 19 28 10 15 1012.9 1007.4 0.0
08/12:00am 27.2 26.4 17.1 54 6.5 NW 17 26 9 14 1013.1 1007.6 0.0
 
Date/Time
WST
Temp
°C
App
Temp
°C
Dew
Point
°C
Rel
Hum
%
Delta-T
°C
Wind Press
QNH
hPa
Press
MSL
hPa
Rain since
9am
mm
Dir  Spd
km/h
Gust
km/h
Spd
kts
Gust
kts
07/11:30pm 27.5 27.3 16.8 52 6.8 NW 13 19 7 10 1013.2 1007.7 0.0
07/11:00pm 27.1 28.3 17.3 55 6.3 WNW 7 11 4 6 1013.7 1008.3 0.0
07/10:30pm 27.1 28.4 17.0 54 6.5 NW 6 7 3 4 1014.1 1008.6 0.0
07/10:00pm 27.1 28.2 16.7 53 6.6 NW 6 11 3 6 1014.1 1008.6 0.0
07/09:30pm 27.1 27.9 17.3 55 6.3 N 9 17 5 9 1014.0 1008.5 0.0
07/09:00pm 26.8 27.0 17.6 57 5.9 NW 13 19 7 10 1013.8 1008.4 0.0
07/08:30pm 26.9 25.8 17.7 57 5.9 N 20 30 11 16 1013.6 1008.2 0.0
07/08:00pm 26.5 26.4 17.8 58 5.6 N 15 19 8 10 1013.2 1007.7 0.0
07/07:30pm 26.4 25.2 17.5 58 5.7 NNE 20 24 11 13 1012.7 1007.2 0.0
07/07:00pm 26.7 25.3 16.9 55 6.3 NNE 20 30 11 16 1012.4 1006.9 0.0
07/06:30pm 27.2 25.9 15.9 50 7.1 N 17 24 9 13 1011.7 1006.2 0.0
07/06:00pm 26.2 24.0 17.8 60 5.4 N 26 32 14 17 1011.5 1006.0 0.0
07/05:30pm 25.6 23.7 18.5 65 4.6 N 26 39 14 21 1011.5 1006.0 0.0
07/05:00pm 25.1 22.3 19.5 71 3.7 N 33 44 18 24 1011.4 1005.9 0.0
07/04:33pm 27.1 24.3 17.3 55 6.3 N 28 48 15 26 1011.4 1005.9 0.0
07/04:30pm 28.8 26.6 17.0 49 7.6 N 24 43 13 23 1011.3 1005.8 0.0
07/04:23pm 28.9 27.9 16.5 47 7.9 NNW 17 37 9 20 1011.3 1005.8 0.0
07/04:00pm 30.1 28.6 14.2 38 9.9 W 15 19 8 10 1011.2 1005.7 0.0
07/03:30pm 29.3 26.8 16.1 44 8.4 W 24 35 13 19 1011.4 1005.9 0.0
07/03:00pm 27.7 24.9 17.3 53 6.7 W 28 41 15 22 1011.9 1006.5 0.0
07/02:30pm 28.0 24.3 16.0 48 7.6 W 30 46 16 25 1012.4 1006.9 0.0
07/02:21pm 28.8 23.8 16.0 45 8.1 WSW 37 52 20 28 1012.6 1007.1 0.0
07/02:13pm 31.3 29.2 15.3 38 10.1 SW 20 43 11 23 1012.1 1006.7 0.0
07/02:00pm 33.2 31.3 14.3 32 11.9 SW 17 30 9 16 1012.0 1006.6 0.0
07/01:30pm 33.5 31.7 15.9 34 11.3 N 20 32 11 17 1012.1 1006.7 0.0
07/01:00pm 33.8 31.9 15.7 33 11.6 N 20 33 11 18 1012.5 1007.0 0.0
07/12:30pm 33.2 33.2 15.2 33 11.4 NW 9 15 5 8 1012.9 1007.4 0.0
07/12:00pm 33.8 33.6 15.7 33 11.6 NNW 11 17 6 9 1013.1 1007.6 0.0
07/11:30am 33.0 33.2 14.1 32 11.8 NW 6 17 3 9 1013.5 1008.1 0.0
07/11:00am 33.1 32.6 13.7 31 12.1 WNW 9 15 5 8 1013.8 1008.4 0.0
07/10:30am 32.2 31.7 14.8 35 11.0 W 11 20 6 11 1014.3 1008.8 0.0
07/10:00am 31.4 31.6 15.8 39 9.9 W 9 19 5 10 1014.6 1009.1 0.0
07/09:30am 30.7 30.0 16.3 42 9.2 W 15 20 8 11 1014.6 1009.1 0.0
07/09:00am 29.8 29.2 16.6 45 8.5 W 15 20 8 11 1014.7 1009.2 0.0
07/08:30am 28.9 28.6 17.4 49 7.4 WNW 15 24 8 13 1014.7 1009.2 0.0
07/08:00am 27.9 27.4 17.7 53 6.6 WNW 17 20 9 11 1014.6 1009.1 0.0
07/07:30am 27.2 27.5 17.9 56 6.0 WNW 13 19 7 10 1014.7 1009.2 0.0
07/07:00am 26.7 27.4 18.0 59 5.6 NW 11 15 6 8 1014.6 1009.1 0.0
07/06:30am 25.8 26.4 18.5 64 4.8 NW 13 22 7 12 1014.3 1008.8 0.0
07/06:00am 25.1 26.2 18.8 68 4.1 NW 11 17 6 9 1014.0 1008.5 0.0
07/05:30am 24.6 26.5 19.0 71 3.7 WNW 7 13 4 7 1013.6 1008.2 0.0
07/05:00am 24.7 26.3 19.1 71 3.7 WNW 9 13 5 7 1013.3 1007.8 0.0
07/04:30am 24.9 26.5 19.1 70 3.8 WNW 9 13 5 7 1013.1 1007.6 0.0
07/04:00am 25.0 25.1 19.1 70 3.9 NW 17 22 9 12 1013.0 1007.5 0.0
07/03:30am 25.0 25.2 19.4 71 3.7 NW 17 24 9 13 1012.6 1007.1 0.0
07/03:00am 25.0 24.8 19.4 71 3.7 NNW 19 26 10 14 1012.4 1006.9 0.0
07/02:30am 25.2 25.4 19.3 70 3.9 NNW 17 24 9 13 1012.5 1007.0 0.0
07/02:00am 25.5 26.4 19.2 68 4.1 NNW 13 17 7 9 1012.4 1006.9 0.0
07/01:30am 25.8 25.5 19.2 67 4.3 NW 19 24 10 13 1012.5 1007.0 0.0
07/01:00am 25.8 26.4 19.4 67 4.2 NW 15 20 8 11 1012.7 1007.2 0.0
07/12:30am 26.0 26.7 19.6 68 4.2 NNW 15 20 8 11 1013.0 1007.5 0.0
07/12:00am 26.0 25.5 19.9 69 4.1 NNW 22 30 12 16 1013.2 1007.7 0.0
 
Date/Time
WST
Temp
°C
App
Temp
°C
Dew
Point
°C
Rel
Hum
%
Delta-T
°C
Wind Press
QNH
hPa
Press
MSL
hPa
Rain since
9am
mm
Dir  Spd
km/h
Gust
km/h
Spd
kts
Gust
kts
06/11:30pm 26.2 25.6 19.8 68 4.3 NNW 22 35 12 19 1013.6 1008.2 0.0
06/11:00pm 26.5 25.5 19.6 66 4.6 N 24 35 13 19 1013.6 1008.2 0.0
06/10:30pm 26.9 27.5 19.5 64 4.9 NNW 15 22 8 12 1013.6 1008.2 0.0
06/10:00pm 27.0 25.6 19.6 64 4.9 N 26 43 14 23 1013.6 1008.2 0.0
06/09:30pm 27.2 25.0 19.5 62 5.1 N 30 44 16 24 1013.4 1008.0 0.0
06/09:00pm 27.3 24.3 19.1 61 5.4 N 33 44 18 24 1013.1 1007.6 0.0
06/08:30pm 28.0 25.0 19.0 58 5.9 N 33 43 18 23 1012.9 1007.4 0.0
06/08:00pm 29.0 26.1 19.3 55 6.5 N 33 48 18 26 1012.5 1007.0 0.0
06/07:30pm 29.9 26.6 19.3 53 7.1 N 35 46 19 25 1012.0 1006.6 0.0
06/07:13pm 30.4 27.0 19.1 50 7.5 N 35 46 19 25 1011.7 1006.2 0.0
06/07:00pm 30.5 26.7 18.9 50 7.7 N 37 54 20 29 1011.4 1005.9 0.0
06/06:58pm 30.6 27.2 19.0 50 7.7 N 35 54 19 29 1011.4 1005.9 0.0
06/06:57pm 30.8 27.3 18.8 48 8.0 N 35 52 19 28 1011.3 1005.8 0.0
06/06:45pm 32.1 29.1 16.8 40 9.9 N 28 50 15 27 1011.0 1005.5 0.0
06/06:30pm 34.9 30.0 8.6 20 15.3 N 24 33 13 18 1010.6 1005.1 0.0
06/06:00pm 35.4 31.0 7.5 18 16.0 NNE 20 28 11 15 1010.1 1004.6 0.0
06/05:30pm 36.3 32.7 8.2 18 16.3 NNE 17 26 9 14 1009.8 1004.3 0.0
06/05:00pm 36.7 32.9 7.7 17 16.8 NE 17 28 9 15 1009.6 1004.1 0.0
06/04:30pm 36.6 32.4 7.6 17 16.7 NE 19 26 10 14 1009.6 1004.1 0.0
06/04:00pm 36.8 33.2 6.9 16 17.1 NNW 15 26 8 14 1009.7 1004.2 0.0
06/03:30pm 36.4 32.0 7.4 17 16.6 NE 20 30 11 16 1009.9 1004.4 0.0
06/03:00pm 37.3 33.4 7.3 16 17.3 NE 17 26 9 14 1010.1 1004.6 0.0
06/02:30pm 36.4 31.8 6.6 16 16.9 NE 20 32 11 17 1010.6 1005.1 0.0
06/02:00pm 36.5 33.2 6.6 16 17.0 N 13 24 7 13 1010.9 1005.4 0.0
06/01:30pm 35.6 33.0 5.9 16 16.6 NNE 9 20 5 11 1011.2 1005.7 0.0
06/01:00pm 35.9 32.4 7.0 17 16.5 NE 15 30 8 16 1011.6 1006.1 0.0
06/12:30pm 35.6 32.6 7.6 18 16.1 NE 13 26 7 14 1011.9 1006.5 0.0
06/12:00pm 34.4 31.9 8.2 20 15.1 ENE 11 20 6 11 1012.3 1006.8 0.0
06/11:30am 33.9 31.3 7.8 20 14.9 ENE 11 20 6 11 1012.7 1007.2 0.0
06/11:00am 33.9 31.1 9.9 23 14.2 E 15 28 8 15 1013.1 1007.6 0.0
06/10:30am 33.0 29.6 9.1 23 13.9 ESE 17 24 9 13 1013.3 1007.8 0.0
06/10:00am 32.2 28.6 8.4 23 13.6 SE 17 26 9 14 1013.5 1008.1 0.0
06/09:30am 30.7 26.4 7.2 23 13.1 ESE 19 28 10 15 1013.8 1008.4 0.0
06/09:00am 30.7 26.5 5.9 21 13.5 ESE 17 28 9 15 1014.0 1008.5 0.0
06/08:30am 30.1 25.8 3.2 18 14.0 SE 15 20 8 11 1014.0 1008.5 0.0
06/08:00am 28.8 25.6 2.9 19 13.3 SSE 9 17 5 9 1013.7 1008.3 0.0

Other Formats:

Comma delimited format used in spreadsheet applications
http://www.bom.gov.au/fwo/IDW60801/IDW60801.99313.axf

JavaScript Object Notation format (JSON) in row-major order
http://www.bom.gov.au/fwo/IDW60801/IDW60801.99313.json